createdAt,value
2018-03-08T00:00:47.273Z,5.87
2018-03-08T00:01:47.258Z,5.87
2018-03-08T00:02:47.407Z,5.87
2018-03-08T00:03:47.278Z,5.94
2018-03-08T00:04:47.289Z,5.87
2018-03-08T00:05:47.272Z,5.94
2018-03-08T00:06:47.337Z,5.94
2018-03-08T00:07:47.263Z,5.87
2018-03-08T00:08:47.301Z,5.94
2018-03-08T00:09:47.288Z,5.94
2018-03-08T00:10:47.290Z,5.94
2018-03-08T00:11:47.281Z,5.87
2018-03-08T00:12:47.284Z,6
2018-03-08T00:13:47.295Z,5.94
2018-03-08T00:14:47.304Z,6
2018-03-08T00:15:47.278Z,6
2018-03-08T00:16:47.317Z,5.94
2018-03-08T00:17:47.510Z,5.94
2018-03-08T00:18:47.292Z,5.94
2018-03-08T00:19:47.313Z,5.94
2018-03-08T00:20:47.323Z,5.94
2018-03-08T00:21:47.317Z,5.94
2018-03-08T00:22:47.343Z,5.94
2018-03-08T00:23:47.331Z,5.94
2018-03-08T00:24:47.356Z,5.94
2018-03-08T00:25:47.334Z,5.94
2018-03-08T00:26:47.330Z,5.94
2018-03-08T00:27:47.341Z,5.94
2018-03-08T00:28:47.368Z,5.94
2018-03-08T00:29:47.363Z,5.87
2018-03-08T00:30:47.367Z,5.94
2018-03-08T00:31:47.352Z,5.87
2018-03-08T00:32:47.611Z,5.94
2018-03-08T00:33:47.640Z,5.94
2018-03-08T00:34:47.379Z,5.94
2018-03-08T00:35:47.372Z,5.94
2018-03-08T00:36:47.666Z,5.94
2018-03-08T00:37:47.377Z,5.94
2018-03-08T00:38:47.392Z,5.94
2018-03-08T00:39:47.379Z,5.94
2018-03-08T00:40:47.391Z,5.94
2018-03-08T00:41:47.430Z,5.94
2018-03-08T00:42:47.385Z,5.94
2018-03-08T00:43:47.429Z,5.87
2018-03-08T00:44:47.570Z,5.94
2018-03-08T00:45:47.682Z,5.87
2018-03-08T00:46:47.380Z,5.94
2018-03-08T00:47:47.388Z,5.87
2018-03-08T00:48:47.433Z,5.87
2018-03-08T00:49:47.388Z,5.87
2018-03-08T00:50:47.429Z,5.94
2018-03-08T00:51:47.411Z,5.87
2018-03-08T00:52:47.573Z,5.87
2018-03-08T00:53:47.419Z,5.87
2018-03-08T00:54:47.436Z,5.87
2018-03-08T00:55:47.429Z,5.87
2018-03-08T00:56:47.466Z,5.81
2018-03-08T00:57:47.400Z,5.81
2018-03-08T00:58:47.422Z,5.87
2018-03-08T00:59:47.415Z,5.87
2018-03-08T01:00:47.413Z,5.81
2018-03-08T01:01:47.439Z,5.81
2018-03-08T01:02:48.452Z,5.81
2018-03-08T01:03:47.455Z,5.81
2018-03-08T01:04:47.439Z,5.87
2018-03-08T01:05:47.428Z,5.81
2018-03-08T01:06:47.959Z,5.81
2018-03-08T01:07:47.460Z,5.81
2018-03-08T01:08:47.451Z,5.87
2018-03-08T01:09:47.455Z,5.87
2018-03-08T01:10:47.462Z,5.81
2018-03-08T01:11:47.448Z,5.87
2018-03-08T01:12:48.702Z,5.81
2018-03-08T01:13:47.447Z,5.87
2018-03-08T01:14:47.503Z,5.87
2018-03-08T01:15:47.460Z,5.87
2018-03-08T01:16:47.480Z,5.87
2018-03-08T01:17:47.504Z,5.87
2018-03-08T01:18:47.478Z,5.81
2018-03-08T01:19:47.486Z,5.81
2018-03-08T01:20:47.548Z,5.87
2018-03-08T01:21:47.487Z,5.81
2018-03-08T01:22:47.526Z,5.81
2018-03-08T01:23:47.499Z,5.81
2018-03-08T01:24:47.520Z,5.81
2018-03-08T01:25:47.500Z,5.87
2018-03-08T01:26:47.494Z,5.81
2018-03-08T01:27:47.511Z,5.81
2018-03-08T01:28:47.518Z,5.81
2018-03-08T01:29:47.529Z,5.81
2018-03-08T01:30:47.536Z,5.81
2018-03-08T01:32:47.549Z,5.75
2018-03-08T01:33:47.557Z,5.81
2018-03-08T01:34:47.555Z,5.81
2018-03-08T01:35:48.568Z,5.81
2018-03-08T01:36:47.549Z,5.81
2018-03-08T01:37:47.554Z,5.81
2018-03-08T01:38:47.858Z,5.81
2018-03-08T01:39:47.804Z,5.75
2018-03-08T01:40:47.573Z,5.81
2018-03-08T01:41:47.574Z,5.81
2018-03-08T01:42:47.573Z,5.81
2018-03-08T01:43:47.820Z,5.81
2018-03-08T01:44:47.578Z,5.81
2018-03-08T01:45:47.610Z,5.81
2018-03-08T01:46:47.603Z,5.81
2018-03-08T01:47:47.640Z,5.81
2018-03-08T01:48:47.622Z,5.81
2018-03-08T01:49:47.652Z,5.87
2018-03-08T01:50:47.662Z,5.81
2018-03-08T01:51:47.622Z,5.81
2018-03-08T01:52:47.635Z,5.81
2018-03-08T01:53:47.642Z,5.81
2018-03-08T01:54:47.640Z,5.81
2018-03-08T01:55:47.651Z,5.81
2018-03-08T01:56:47.656Z,5.81
2018-03-08T01:57:47.773Z,5.81
2018-03-08T01:58:47.660Z,5.81
2018-03-08T01:59:47.668Z,5.81
2018-03-08T02:00:47.673Z,5.81
2018-03-08T02:01:47.701Z,5.81
2018-03-08T02:02:47.662Z,5.81
2018-03-08T02:03:47.808Z,5.81
2018-03-08T02:04:47.701Z,5.81
2018-03-08T02:05:48.354Z,5.81
2018-03-08T02:06:47.668Z,5.81
2018-03-08T02:07:47.694Z,5.81
2018-03-08T02:08:47.693Z,5.75
2018-03-08T02:09:47.813Z,5.81
2018-03-08T02:10:47.686Z,5.75
2018-03-08T02:11:47.699Z,5.75
2018-03-08T02:12:47.677Z,5.75
2018-03-08T02:13:47.682Z,5.81
2018-03-08T02:14:48.004Z,5.75
2018-03-08T02:15:47.717Z,5.75
2018-03-08T02:16:47.749Z,5.75
2018-03-08T02:17:47.733Z,5.81
2018-03-08T02:18:47.725Z,5.81
2018-03-08T02:19:47.737Z,5.81
2018-03-08T02:20:47.720Z,5.81
2018-03-08T02:21:47.729Z,5.81
2018-03-08T02:22:47.770Z,5.81
2018-03-08T02:23:47.722Z,5.75
2018-03-08T02:24:47.965Z,5.81
2018-03-08T02:25:47.728Z,5.81
2018-03-08T02:26:47.792Z,5.81
2018-03-08T02:27:47.741Z,5.81
2018-03-08T02:28:47.750Z,5.75
2018-03-08T02:29:47.783Z,5.81
2018-03-08T02:30:47.778Z,5.75
2018-03-08T02:31:47.759Z,5.81
2018-03-08T02:32:47.755Z,5.75
2018-03-08T02:33:47.772Z,5.75
2018-03-08T02:34:47.759Z,5.81
2018-03-08T02:35:47.795Z,5.75
2018-03-08T02:36:47.784Z,5.75
2018-03-08T02:37:47.776Z,5.75
2018-03-08T02:38:47.783Z,5.75
2018-03-08T02:39:47.774Z,5.75
2018-03-08T02:40:47.847Z,5.69
2018-03-08T02:41:47.809Z,5.69
2018-03-08T02:42:47.802Z,5.69
2018-03-08T02:43:47.808Z,5.69
2018-03-08T02:44:47.836Z,5.62
2018-03-08T02:45:47.796Z,5.62
2018-03-08T02:46:47.874Z,5.62
2018-03-08T02:47:47.880Z,5.62
2018-03-08T02:48:47.819Z,5.62
2018-03-08T02:49:47.811Z,5.62
2018-03-08T02:50:47.968Z,5.56
2018-03-08T02:51:47.840Z,5.56
2018-03-08T02:52:47.848Z,5.56
2018-03-08T02:53:47.994Z,5.56
2018-03-08T02:54:47.993Z,5.56
2018-03-08T02:55:47.837Z,5.5
2018-03-08T02:56:47.837Z,5.5
2018-03-08T02:57:48.100Z,5.5
2018-03-08T02:58:47.945Z,5.5
2018-03-08T02:59:48.030Z,5.44
2018-03-08T03:00:47.849Z,5.44
2018-03-08T03:01:47.866Z,5.44
2018-03-08T03:02:47.897Z,5.37
2018-03-08T03:03:47.864Z,5.37
2018-03-08T03:04:47.899Z,5.31
2018-03-08T03:05:47.878Z,5.31
2018-03-08T03:06:47.888Z,5.31
2018-03-08T03:07:47.909Z,5.31
2018-03-08T03:08:47.884Z,5.25
2018-03-08T03:09:48.209Z,5.31
2018-03-08T03:10:47.901Z,5.25
2018-03-08T03:11:47.941Z,5.19
2018-03-08T03:12:47.902Z,5.19
2018-03-08T03:13:47.892Z,5.25
2018-03-08T03:14:47.898Z,5.25
2018-03-08T03:15:48.158Z,5.25
2018-03-08T03:16:47.899Z,5.19
2018-03-08T03:17:47.900Z,5.19
2018-03-08T03:18:47.912Z,5.19
2018-03-08T03:19:47.939Z,5.19
2018-03-08T03:20:47.948Z,5.19
2018-03-08T03:21:47.914Z,5.19
2018-03-08T03:22:47.917Z,5.12
2018-03-08T03:23:47.921Z,5.12
2018-03-08T03:24:47.931Z,5.12
2018-03-08T03:25:47.951Z,5.12
2018-03-08T03:26:47.945Z,5.06
2018-03-08T03:27:47.912Z,5.06
2018-03-08T03:28:47.948Z,5.06
2018-03-08T03:29:47.933Z,5.06
2018-03-08T03:30:48.020Z,5.06
2018-03-08T03:31:47.951Z,5.06
2018-03-08T03:32:47.954Z,5.06
2018-03-08T03:33:47.957Z,5
2018-03-08T03:34:47.945Z,5.06
2018-03-08T03:35:47.953Z,4.94
2018-03-08T03:36:47.966Z,5
2018-03-08T03:37:47.981Z,5
2018-03-08T03:38:47.972Z,5
2018-03-08T03:39:48.031Z,4.94
2018-03-08T03:40:47.956Z,5
2018-03-08T03:41:48.247Z,5
2018-03-08T03:42:47.989Z,4.94
2018-03-08T03:43:47.958Z,4.94
2018-03-08T03:44:47.967Z,4.87
2018-03-08T03:45:47.979Z,4.94
2018-03-08T03:46:48.053Z,4.87
2018-03-08T03:47:47.990Z,4.94
2018-03-08T03:48:48.006Z,4.94
2018-03-08T03:49:48.004Z,4.87
2018-03-08T03:50:47.989Z,4.81
2018-03-08T03:51:48.018Z,4.75
2018-03-08T03:52:48.039Z,4.75
2018-03-08T03:53:48.014Z,4.75
2018-03-08T03:54:48.009Z,4.75
2018-03-08T03:55:48.019Z,4.75
2018-03-08T03:56:48.015Z,4.81
2018-03-08T03:57:48.050Z,4.81
2018-03-08T03:58:48.030Z,4.81
2018-03-08T03:59:48.047Z,4.75
2018-03-08T04:00:48.049Z,4.81
2018-03-08T04:01:48.043Z,4.81
2018-03-08T04:02:48.064Z,4.81
2018-03-08T04:03:48.042Z,4.81
2018-03-08T04:04:48.031Z,4.75
2018-03-08T04:05:48.046Z,4.81
2018-03-08T04:06:48.031Z,4.75
2018-03-08T04:07:48.063Z,4.75
2018-03-08T04:08:48.049Z,4.75
2018-03-08T04:09:48.097Z,4.75
2018-03-08T04:10:48.087Z,4.75
2018-03-08T04:11:48.061Z,4.81
2018-03-08T04:12:48.065Z,4.81
2018-03-08T04:13:48.056Z,4.75
2018-03-08T04:14:48.101Z,4.81
2018-03-08T04:15:48.056Z,4.81
2018-03-08T04:16:48.072Z,4.81
2018-03-08T04:17:48.109Z,4.81
2018-03-08T04:18:48.150Z,4.81
2018-03-08T04:19:48.091Z,4.81
2018-03-08T04:20:48.140Z,4.81
2018-03-08T04:21:48.102Z,4.81
2018-03-08T04:22:48.115Z,4.75
2018-03-08T04:23:48.110Z,4.81
2018-03-08T04:24:48.121Z,4.81
2018-03-08T04:25:48.139Z,4.81
2018-03-08T04:26:48.113Z,4.81
2018-03-08T04:27:48.119Z,4.81
2018-03-08T04:28:48.148Z,4.75
2018-03-08T04:29:48.167Z,4.81
2018-03-08T04:30:48.120Z,4.81
2018-03-08T04:31:48.396Z,4.81
2018-03-08T04:32:48.125Z,4.81
2018-03-08T04:33:48.135Z,4.81
2018-03-08T04:34:48.139Z,4.87
2018-03-08T04:35:48.173Z,4.87
2018-03-08T04:36:48.177Z,4.87
2018-03-08T04:37:48.210Z,4.87
2018-03-08T04:38:48.148Z,4.94
2018-03-08T04:39:48.154Z,4.94
2018-03-08T04:40:48.159Z,5
2018-03-08T04:41:48.183Z,5
2018-03-08T04:42:48.190Z,5
2018-03-08T04:43:48.218Z,5
2018-03-08T04:44:48.165Z,5
2018-03-08T04:45:48.172Z,5
2018-03-08T04:46:48.181Z,5
2018-03-08T04:47:48.187Z,5.06
2018-03-08T04:48:48.188Z,5.06
2018-03-08T04:49:48.185Z,5.06
2018-03-08T04:50:48.171Z,5.06
2018-03-08T04:51:48.208Z,5.06
2018-03-08T04:52:48.189Z,5.06
2018-03-08T04:53:48.176Z,5.06
2018-03-08T04:54:48.176Z,5.06
2018-03-08T04:55:48.192Z,5.06
2018-03-08T04:56:48.172Z,5.06
2018-03-08T04:57:48.174Z,5.06
2018-03-08T04:58:48.219Z,5.12
2018-03-08T04:59:48.185Z,5.06
2018-03-08T05:00:48.195Z,5.12
2018-03-08T05:01:48.218Z,5.12
2018-03-08T05:02:48.207Z,5.12
2018-03-08T05:03:48.252Z,5.06
2018-03-08T05:04:48.225Z,5.12
2018-03-08T05:05:48.205Z,5.19
2018-03-08T05:06:48.221Z,5.12
2018-03-08T05:07:48.233Z,5.12
2018-03-08T05:08:48.263Z,5.12
2018-03-08T05:09:48.238Z,5.12
2018-03-08T05:10:48.244Z,5.12
2018-03-08T05:11:48.235Z,5.12
2018-03-08T05:12:48.243Z,5.12
2018-03-08T05:13:48.517Z,5.12
2018-03-08T05:14:48.320Z,5.12
2018-03-08T05:15:48.260Z,5.12
2018-03-08T05:16:48.285Z,5.19
2018-03-08T05:17:48.262Z,5.12
2018-03-08T05:18:48.303Z,5.19
2018-03-08T05:19:48.307Z,5.12
2018-03-08T05:20:48.278Z,5.12
2018-03-08T05:21:48.254Z,5.12
2018-03-08T05:22:48.269Z,5.19
2018-03-08T05:23:48.673Z,5.12
2018-03-08T05:24:48.275Z,5.19
2018-03-08T05:25:48.260Z,5.12
2018-03-08T05:26:48.280Z,5.19
2018-03-08T05:27:48.281Z,5.19
2018-03-08T05:28:48.282Z,5.12
2018-03-08T05:29:48.283Z,5.19
2018-03-08T05:30:48.402Z,5.19
2018-03-08T05:31:48.273Z,5.25
2018-03-08T05:32:48.298Z,5.19
2018-03-08T05:33:48.325Z,5.25
2018-03-08T05:34:48.578Z,5.25
2018-03-08T05:35:48.394Z,5.19
2018-03-08T05:36:48.327Z,5.25
2018-03-08T05:37:48.348Z,5.19
2018-03-08T05:38:48.330Z,5.25
2018-03-08T05:39:48.349Z,5.25
2018-03-08T05:40:48.314Z,5.25
2018-03-08T05:41:48.325Z,5.25
2018-03-08T05:42:48.342Z,5.25
2018-03-08T05:43:48.336Z,5.25
2018-03-08T05:44:48.355Z,5.31
2018-03-08T05:45:48.347Z,5.31
2018-03-08T05:46:48.336Z,5.31
2018-03-08T05:47:48.418Z,5.31
2018-03-08T05:48:48.336Z,5.31
2018-03-08T05:49:48.354Z,5.31
2018-03-08T05:50:48.360Z,5.31
2018-03-08T05:51:48.352Z,5.37
2018-03-08T05:52:48.359Z,5.31
2018-03-08T05:53:48.346Z,5.31
2018-03-08T05:54:48.346Z,5.37
2018-03-08T05:55:48.366Z,5.31
2018-03-08T05:56:48.350Z,5.37
2018-03-08T05:57:48.361Z,5.37
2018-03-08T05:58:48.358Z,5.37
2018-03-08T05:59:48.398Z,5.31
2018-03-08T06:00:48.718Z,5.37
2018-03-08T06:01:48.366Z,5.37
2018-03-08T06:02:48.367Z,5.37
2018-03-08T06:03:48.398Z,5.31
2018-03-08T06:04:48.370Z,5.31
2018-03-08T06:05:48.380Z,5.37
2018-03-08T06:06:48.383Z,5.37
2018-03-08T06:07:48.366Z,5.31
2018-03-08T06:08:48.386Z,5.31
2018-03-08T06:09:48.392Z,5.37
2018-03-08T06:10:48.397Z,5.31
2018-03-08T06:11:48.373Z,5.31
2018-03-08T06:12:48.426Z,5.31
2018-03-08T06:13:48.408Z,5.31
2018-03-08T06:14:48.417Z,5.31
2018-03-08T06:15:48.451Z,5.31
2018-03-08T06:16:48.426Z,5.31
2018-03-08T06:17:48.413Z,5.25
2018-03-08T06:18:48.402Z,5.31
2018-03-08T06:19:48.419Z,5.31
2018-03-08T06:20:48.441Z,5.31
2018-03-08T06:21:48.426Z,5.31
2018-03-08T06:22:48.415Z,5.31
2018-03-08T06:23:48.427Z,5.31
2018-03-08T06:24:48.421Z,5.25
2018-03-08T06:25:48.436Z,5.31
2018-03-08T06:26:48.451Z,5.31
2018-03-08T06:27:48.424Z,5.31
2018-03-08T06:28:48.446Z,5.31
2018-03-08T06:29:48.501Z,5.31
2018-03-08T06:30:48.456Z,5.31
2018-03-08T06:31:48.531Z,5.31
2018-03-08T06:32:48.471Z,5.31
2018-03-08T06:33:48.460Z,5.31
2018-03-08T06:34:48.458Z,5.31
2018-03-08T06:35:48.536Z,5.31
2018-03-08T06:36:48.479Z,5.31
2018-03-08T06:37:48.495Z,5.31
2018-03-08T06:38:48.474Z,5.31
2018-03-08T06:39:48.496Z,5.31
2018-03-08T06:40:48.504Z,5.31
2018-03-08T06:41:48.481Z,5.31
2018-03-08T06:42:48.527Z,5.31
2018-03-08T06:43:48.505Z,5.31
2018-03-08T06:44:48.821Z,5.31
2018-03-08T06:45:48.490Z,5.31
2018-03-08T06:46:48.497Z,5.31
2018-03-08T06:47:48.970Z,5.31
2018-03-08T06:48:48.528Z,5.31
2018-03-08T06:49:48.515Z,5.31
2018-03-08T06:50:48.515Z,5.25
2018-03-08T06:51:48.514Z,5.31
2018-03-08T06:52:48.542Z,5.31
2018-03-08T06:53:48.542Z,5.25
2018-03-08T06:54:48.529Z,5.25
2018-03-08T06:55:48.533Z,5.25
2018-03-08T06:56:48.530Z,5.31
2018-03-08T06:57:48.544Z,5.31
2018-03-08T06:58:48.604Z,5.31
2018-03-08T06:59:48.553Z,5.31
2018-03-08T07:00:48.566Z,5.31
2018-03-08T07:01:48.548Z,5.31
2018-03-08T07:02:48.813Z,5.31
2018-03-08T07:03:48.555Z,5.31
2018-03-08T07:04:48.545Z,5.31
2018-03-08T07:05:48.570Z,5.31
2018-03-08T07:06:48.565Z,5.37
2018-03-08T07:07:48.839Z,5.37
2018-03-08T07:08:48.558Z,5.37
2018-03-08T07:09:48.834Z,5.37
2018-03-08T07:10:48.574Z,5.37
2018-03-08T07:11:48.557Z,5.44
2018-03-08T07:12:48.590Z,5.37
2018-03-08T07:13:48.627Z,5.44
2018-03-08T07:14:48.571Z,5.44
2018-03-08T07:15:48.969Z,5.44
2018-03-08T07:16:48.662Z,5.37
2018-03-08T07:17:48.687Z,5.44
2018-03-08T07:18:48.676Z,5.44
2018-03-08T07:19:48.606Z,5.44
2018-03-08T07:20:48.616Z,5.44
2018-03-08T07:21:48.594Z,5.44
2018-03-08T07:22:48.609Z,5.5
2018-03-08T07:23:48.670Z,5.44
2018-03-08T07:24:48.607Z,5.44
2018-03-08T07:25:48.620Z,5.5
2018-03-08T07:26:48.633Z,5.5
2018-03-08T07:27:48.617Z,5.5
2018-03-08T07:28:48.627Z,5.5
2018-03-08T07:29:48.642Z,5.56
2018-03-08T07:30:48.629Z,5.56
2018-03-08T07:31:48.915Z,5.56
2018-03-08T07:32:48.647Z,5.56
2018-03-08T07:33:48.671Z,5.62
2018-03-08T07:34:48.653Z,5.62
2018-03-08T07:35:48.712Z,5.62
2018-03-08T07:36:48.711Z,5.62
2018-03-08T07:37:48.675Z,5.69
2018-03-08T07:38:48.666Z,5.69
2018-03-08T07:39:48.689Z,5.69
2018-03-08T07:40:48.694Z,5.69
2018-03-08T07:41:48.709Z,5.69
2018-03-08T07:42:48.690Z,5.75
2018-03-08T07:43:48.708Z,5.69
2018-03-08T07:44:48.695Z,5.75
2018-03-08T07:45:48.703Z,5.75
2018-03-08T07:46:48.723Z,5.75
2018-03-08T07:47:48.709Z,5.81
2018-03-08T07:48:48.715Z,5.81
2018-03-08T07:49:48.716Z,5.81
2018-03-08T07:50:48.705Z,5.81
2018-03-08T07:51:49.065Z,5.87
2018-03-08T07:52:48.750Z,5.87
2018-03-08T07:53:48.741Z,5.87
2018-03-08T07:54:48.733Z,5.87
2018-03-08T07:55:48.743Z,5.94
2018-03-08T07:56:48.744Z,5.94
2018-03-08T07:57:48.769Z,5.94
2018-03-08T07:58:48.751Z,5.94
2018-03-08T07:59:48.758Z,5.94
2018-03-08T08:00:48.766Z,5.94
2018-03-08T08:01:48.767Z,5.94
2018-03-08T08:02:48.835Z,5.94
2018-03-08T08:03:48.773Z,5.94
2018-03-08T08:04:48.813Z,6
2018-03-08T08:05:48.764Z,6
2018-03-08T08:06:48.780Z,6
2018-03-08T08:07:48.778Z,6
2018-03-08T08:08:48.832Z,6.06
2018-03-08T08:09:48.797Z,6.06
2018-03-08T08:10:48.813Z,6
2018-03-08T08:11:48.869Z,6.06
2018-03-08T08:12:48.813Z,6.06
2018-03-08T08:13:48.803Z,6.06
2018-03-08T08:14:48.801Z,6.06
2018-03-08T08:15:48.805Z,6.06
2018-03-08T08:16:48.802Z,6.12
2018-03-08T08:17:48.829Z,6.12
2018-03-08T08:18:48.827Z,6.12
2018-03-08T08:19:48.803Z,6.12
2018-03-08T08:20:48.825Z,6.19
2018-03-08T08:21:48.822Z,6.19
2018-03-08T08:22:48.827Z,6.12
2018-03-08T08:23:49.130Z,6.19
2018-03-08T08:24:48.861Z,6.19
2018-03-08T08:25:48.927Z,6.25
2018-03-08T08:26:49.184Z,6.19
2018-03-08T08:27:48.852Z,6.25
2018-03-08T08:28:48.894Z,6.25
2018-03-08T08:29:48.862Z,6.25
2018-03-08T08:30:48.865Z,6.31
2018-03-08T08:31:48.903Z,6.31
2018-03-08T08:32:48.898Z,6.31
2018-03-08T08:33:49.170Z,6.31
2018-03-08T08:34:54.890Z,6.37
2018-03-08T08:35:48.856Z,6.37
2018-03-08T08:36:48.874Z,6.37
2018-03-08T08:37:48.876Z,6.44
2018-03-08T08:38:48.908Z,6.37
2018-03-08T08:39:48.923Z,6.44
2018-03-08T08:40:48.932Z,6.44
2018-03-08T08:41:48.885Z,6.44
2018-03-08T08:42:48.921Z,6.44
2018-03-08T08:43:48.903Z,6.5
2018-03-08T08:44:48.989Z,6.5
2018-03-08T08:45:48.881Z,6.5
2018-03-08T08:46:48.901Z,6.56
2018-03-08T08:47:48.907Z,6.5
2018-03-08T08:48:49.203Z,6.56
2018-03-08T08:49:48.930Z,6.56
2018-03-08T08:50:48.923Z,6.62
2018-03-08T08:51:48.927Z,6.62
2018-03-08T08:52:48.989Z,6.62
2018-03-08T08:53:48.950Z,6.62
2018-03-08T08:54:48.936Z,6.69
2018-03-08T08:55:48.940Z,6.69
2018-03-08T08:56:48.959Z,6.69
2018-03-08T08:57:48.942Z,6.75
2018-03-08T08:58:48.949Z,6.75
2018-03-08T08:59:48.936Z,6.75
2018-03-08T09:00:48.984Z,6.75
2018-03-08T09:01:48.965Z,6.81
2018-03-08T09:02:48.949Z,6.81
2018-03-08T09:03:48.956Z,6.87
2018-03-08T09:04:49.001Z,6.87
2018-03-08T09:05:48.982Z,6.94
2018-03-08T09:06:48.990Z,6.94
2018-03-08T09:07:48.977Z,7
2018-03-08T09:08:48.969Z,7
2018-03-08T09:09:48.985Z,7.06
2018-03-08T09:10:49.034Z,7.06
2018-03-08T09:11:48.973Z,7.06
2018-03-08T09:12:48.987Z,7.12
2018-03-08T09:13:49.020Z,7.12
2018-03-08T09:14:48.985Z,7.12
2018-03-08T09:15:49.033Z,7.19
2018-03-08T09:16:48.989Z,7.19
2018-03-08T09:17:49.021Z,7.25
2018-03-08T09:18:49.019Z,7.25
2018-03-08T09:19:49.038Z,7.31
2018-03-08T09:20:49.032Z,7.31
2018-03-08T09:21:49.038Z,7.37
2018-03-08T09:22:49.030Z,7.37
2018-03-08T09:23:49.034Z,7.44
2018-03-08T09:24:49.046Z,7.44
2018-03-08T09:25:49.029Z,7.44
2018-03-08T09:26:49.026Z,7.5
2018-03-08T09:27:49.060Z,7.5
2018-03-08T09:28:49.037Z,7.56
2018-03-08T09:29:49.016Z,7.56
2018-03-08T09:30:49.012Z,7.62
2018-03-08T09:31:49.042Z,7.62
2018-03-08T09:32:49.330Z,7.62
2018-03-08T09:33:49.029Z,7.69
2018-03-08T09:34:49.050Z,7.75
2018-03-08T09:35:49.026Z,7.75
2018-03-08T09:36:49.033Z,7.75
2018-03-08T09:37:49.069Z,7.81
2018-03-08T09:38:49.030Z,7.81
2018-03-08T09:39:49.051Z,7.87
2018-03-08T09:40:49.037Z,7.87
2018-03-08T09:41:49.080Z,7.94
2018-03-08T09:42:49.083Z,7.94
2018-03-08T09:43:49.271Z,8
2018-03-08T09:44:49.062Z,8
2018-03-08T09:45:49.072Z,8.06
2018-03-08T09:46:49.092Z,8.06
2018-03-08T09:47:49.074Z,8.13
2018-03-08T09:48:49.094Z,8.13
2018-03-08T09:49:49.112Z,8.13
2018-03-08T09:50:49.119Z,8.19
2018-03-08T09:51:49.320Z,8.19
2018-03-08T09:52:49.081Z,8.19
2018-03-08T09:53:49.120Z,8.25
2018-03-08T09:54:49.083Z,8.25
2018-03-08T09:55:49.097Z,8.25
2018-03-08T09:56:49.092Z,8.31
2018-03-08T09:57:49.112Z,8.31
2018-03-08T09:58:49.122Z,8.44
2018-03-08T09:59:49.142Z,8.5
2018-03-08T10:00:49.109Z,8.56
2018-03-08T10:01:49.118Z,8.63
2018-03-08T10:02:49.166Z,8.63
2018-03-08T10:03:49.141Z,8.69
2018-03-08T10:04:49.124Z,8.69
2018-03-08T10:05:49.131Z,8.75
2018-03-08T10:06:49.132Z,8.81
2018-03-08T10:07:49.198Z,8.81
2018-03-08T10:08:49.178Z,8.81
2018-03-08T10:09:49.133Z,8.88
2018-03-08T10:10:49.154Z,8.94
2018-03-08T10:11:49.142Z,8.94
2018-03-08T10:12:49.338Z,8.94
2018-03-08T10:13:49.177Z,8.94
2018-03-08T10:14:49.172Z,8.94
2018-03-08T10:15:49.167Z,9
2018-03-08T10:16:49.161Z,8.94
2018-03-08T10:17:49.192Z,9
2018-03-08T10:18:49.158Z,8.88
2018-03-08T10:19:49.184Z,8.94
2018-03-08T10:20:49.188Z,8.88
2018-03-08T10:21:49.179Z,8.88
2018-03-08T10:22:49.460Z,8.88
2018-03-08T10:23:49.179Z,8.81
2018-03-08T10:24:49.216Z,8.88
2018-03-08T10:25:49.174Z,8.88
2018-03-08T10:26:49.199Z,8.94
2018-03-08T10:27:49.178Z,8.94
2018-03-08T10:28:49.251Z,9
2018-03-08T10:29:49.194Z,9
2018-03-08T10:30:49.209Z,9
2018-03-08T10:31:49.205Z,8.94
2018-03-08T10:32:49.211Z,8.94
2018-03-08T10:33:49.244Z,9
2018-03-08T10:34:49.248Z,8.94
2018-03-08T10:35:49.236Z,9
2018-03-08T10:36:49.251Z,9
2018-03-08T10:37:49.224Z,8.94
2018-03-08T10:38:49.240Z,8.94
2018-03-08T10:39:49.246Z,9
2018-03-08T10:40:49.225Z,9.06
2018-03-08T10:41:49.271Z,9.06
2018-03-08T10:42:49.239Z,9.13
2018-03-08T10:43:49.252Z,9.25
2018-03-08T10:44:49.225Z,9.25
2018-03-08T10:45:49.234Z,9.25
2018-03-08T10:46:49.245Z,9.31
2018-03-08T10:47:49.242Z,9.31
2018-03-08T10:49:49.267Z,9.38
2018-03-08T10:50:49.269Z,9.38
2018-03-08T10:51:49.290Z,9.38
2018-03-08T10:52:49.304Z,9.44
2018-03-08T10:53:49.284Z,9.38
2018-03-08T10:54:49.284Z,9.38
2018-03-08T10:55:49.303Z,9.38
2018-03-08T10:56:49.275Z,9.38
2018-03-08T10:57:49.296Z,9.38
2018-03-08T10:58:49.280Z,9.31
2018-03-08T10:59:49.269Z,9.38
2018-03-08T11:00:50.002Z,9.31
2018-03-08T11:01:49.279Z,9.38
2018-03-08T11:02:49.282Z,9.38
2018-03-08T11:03:49.295Z,9.38
2018-03-08T11:04:49.370Z,9.38
2018-03-08T11:05:49.287Z,9.38
2018-03-08T11:06:49.442Z,9.38
2018-03-08T11:07:49.312Z,9.31
2018-03-08T11:08:49.340Z,9.38
2018-03-08T11:09:49.331Z,9.38
2018-03-08T11:10:49.328Z,9.38
2018-03-08T11:11:49.324Z,9.44
2018-03-08T11:12:49.343Z,9.44
2018-03-08T11:13:49.321Z,9.44
2018-03-08T11:14:49.374Z,9.44
2018-03-08T11:15:49.437Z,9.5
2018-03-08T11:16:49.362Z,9.5
2018-03-08T11:17:49.366Z,9.5
2018-03-08T11:18:49.341Z,9.5
2018-03-08T11:19:49.383Z,9.5
2018-03-08T11:20:49.356Z,9.56
2018-03-08T11:21:49.361Z,9.56
2018-03-08T11:22:49.345Z,9.63
2018-03-08T11:23:49.388Z,9.56
2018-03-08T11:24:49.369Z,9.56
2018-03-08T11:25:49.368Z,9.69
2018-03-08T11:26:49.380Z,9.69
2018-03-08T11:27:49.369Z,9.63
2018-03-08T11:28:49.376Z,9.69
2018-03-08T11:29:49.375Z,9.69
2018-03-08T11:30:49.409Z,9.69
2018-03-08T11:31:49.361Z,9.63
2018-03-08T11:32:49.379Z,9.63
2018-03-08T11:33:49.402Z,9.63
2018-03-08T11:34:49.388Z,9.63
2018-03-08T11:36:49.384Z,9.69
2018-03-08T11:37:49.429Z,9.81
2018-03-08T11:38:49.382Z,9.81
2018-03-08T11:39:49.413Z,9.81
2018-03-08T11:40:49.414Z,9.81
2018-03-08T11:41:49.414Z,9.81
2018-03-08T11:42:49.441Z,9.75
2018-03-08T11:43:49.426Z,9.81
2018-03-08T11:44:49.726Z,9.81
2018-03-08T11:45:49.418Z,9.75
2018-03-08T11:46:49.423Z,9.81
2018-03-08T11:47:49.409Z,9.81
2018-03-08T11:48:49.426Z,9.81
2018-03-08T11:49:49.467Z,9.75
2018-03-08T11:50:49.425Z,9.75
2018-03-08T11:51:49.448Z,9.81
2018-03-08T11:52:49.442Z,9.75
2018-03-08T11:53:49.448Z,9.81
2018-03-08T11:54:50.183Z,9.88
2018-03-08T11:55:49.445Z,9.88
2018-03-08T11:56:49.461Z,9.88
2018-03-08T11:57:49.495Z,9.94
2018-03-08T11:58:49.478Z,10
2018-03-08T11:59:49.474Z,10.06
2018-03-08T12:00:49.492Z,10.13
2018-03-08T12:01:49.485Z,10.19
2018-03-08T12:02:49.505Z,10.31
2018-03-08T12:03:49.494Z,10.38
2018-03-08T12:04:49.498Z,10.56
2018-03-08T12:05:49.499Z,10.63
2018-03-08T12:06:49.510Z,10.69
2018-03-08T12:07:49.493Z,10.75
2018-03-08T12:08:49.485Z,10.75
2018-03-08T12:09:49.493Z,10.81
2018-03-08T12:10:49.507Z,10.88
2018-03-08T12:11:49.497Z,11
2018-03-08T12:12:49.509Z,11
2018-03-08T12:13:49.519Z,10.94
2018-03-08T12:14:49.504Z,10.94
2018-03-08T12:15:49.573Z,10.94
2018-03-08T12:16:50.180Z,10.88
2018-03-08T12:17:49.900Z,10.94
2018-03-08T12:18:49.527Z,10.94
2018-03-08T12:19:49.685Z,10.94
2018-03-08T12:20:49.538Z,10.94
2018-03-08T12:21:49.554Z,10.94
2018-03-08T12:22:49.862Z,10.94
2018-03-08T12:23:49.535Z,10.88
2018-03-08T12:24:49.559Z,10.88
2018-03-08T12:25:49.545Z,10.94
2018-03-08T12:26:49.539Z,10.94
2018-03-08T12:27:49.582Z,11
2018-03-08T12:28:49.558Z,11.06
2018-03-08T12:29:49.940Z,11.12
2018-03-08T12:30:49.556Z,11.19
2018-03-08T12:31:49.582Z,11.38
2018-03-08T12:32:49.571Z,11.38
2018-03-08T12:33:49.578Z,11.5
2018-03-08T12:34:49.589Z,11.63
2018-03-08T12:35:49.846Z,11.56
2018-03-08T12:36:49.588Z,11.63
2018-03-08T12:37:49.583Z,11.63
2018-03-08T12:38:49.586Z,11.56
2018-03-08T12:39:49.593Z,11.56
2018-03-08T12:40:49.634Z,11.56
2018-03-08T12:41:49.639Z,11.63
2018-03-08T12:42:49.586Z,11.56
2018-03-08T12:43:49.594Z,11.63
2018-03-08T12:44:49.604Z,11.75
2018-03-08T12:45:49.659Z,11.75
2018-03-08T12:46:49.605Z,11.69
2018-03-08T12:47:49.595Z,11.63
2018-03-08T12:48:50.343Z,11.63
2018-03-08T12:49:49.623Z,11.56
2018-03-08T12:50:49.639Z,11.56
2018-03-08T12:51:49.627Z,11.56
2018-03-08T12:52:49.630Z,11.5
2018-03-08T12:53:49.634Z,11.5
2018-03-08T12:54:49.625Z,11.56
2018-03-08T12:55:49.942Z,11.63
2018-03-08T12:56:49.651Z,11.69
2018-03-08T12:57:49.655Z,11.81
2018-03-08T12:58:49.648Z,11.88
2018-03-08T12:59:49.660Z,11.88
2018-03-08T13:00:49.720Z,11.88
2018-03-08T13:01:49.653Z,12
2018-03-08T13:02:49.663Z,12.06
2018-03-08T13:03:49.675Z,12.13
2018-03-08T13:04:49.675Z,12.19
2018-03-08T13:05:49.666Z,12.19
2018-03-08T13:06:49.748Z,12.06
2018-03-08T13:07:49.698Z,12.06
2018-03-08T13:08:49.716Z,12
2018-03-08T13:09:49.707Z,12
2018-03-08T13:10:49.681Z,12
2018-03-08T13:11:49.717Z,12
2018-03-08T13:12:49.710Z,12
2018-03-08T13:13:49.705Z,12
2018-03-08T13:14:49.728Z,12
2018-03-08T13:15:49.719Z,12
2018-03-08T13:16:49.751Z,11.94
2018-03-08T13:17:49.729Z,12
2018-03-08T13:18:49.785Z,11.94
2018-03-08T13:19:49.741Z,12
2018-03-08T13:20:49.735Z,12
2018-03-08T13:21:49.778Z,11.94
2018-03-08T13:22:49.938Z,11.94
2018-03-08T13:23:49.749Z,11.88
2018-03-08T13:24:49.773Z,12